createdAt,value
2022-08-11T00:09:45.396Z,2.70
2022-08-11T00:20:15.413Z,2.55
2022-08-11T00:30:16.077Z,2.90
2022-08-11T00:40:28.746Z,2.33
2022-08-11T00:50:47.432Z,2.65
2022-08-11T01:01:09.701Z,3.30
2022-08-11T01:11:55.786Z,3.20
2022-08-11T01:22:33.096Z,3.78
2022-08-11T01:33:02.318Z,3.17
2022-08-11T01:44:12.752Z,2.85
2022-08-11T01:54:24.664Z,3.30
2022-08-11T02:04:36.902Z,3.55
2022-08-11T02:14:53.538Z,3.63
2022-08-11T02:25:21.080Z,3.40
2022-08-11T02:35:29.238Z,2.97
2022-08-11T02:45:54.389Z,3.63
2022-08-11T02:56:09.172Z,3.22
2022-08-11T03:06:27.486Z,2.53
2022-08-11T03:16:48.587Z,3.03
2022-08-11T03:27:04.153Z,3.22
2022-08-11T03:37:50.609Z,2.58
2022-08-11T03:48:08.534Z,2.25
2022-08-11T04:08:58.136Z,2.90
2022-08-11T04:19:38.823Z,3.35
2022-08-11T04:30:04.988Z,3.08
2022-08-11T04:40:50.037Z,2.90
2022-08-11T04:51:29.913Z,3.70
2022-08-11T05:12:52.675Z,3.40
2022-08-11T05:23:18.486Z,3.03
2022-08-11T05:33:50.072Z,3.22
2022-08-11T05:44:26.332Z,3.58
2022-08-11T05:55:27.742Z,2.65
2022-08-11T06:05:43.858Z,3.03
2022-08-11T06:15:55.420Z,3.03
2022-08-11T06:26:09.532Z,3.33
2022-08-11T06:36:30.631Z,3.20
2022-08-11T06:46:41.810Z,3.42
2022-08-11T06:57:28.923Z,3.28
2022-08-11T07:08:34.758Z,4.10
2022-08-11T07:19:01.313Z,3.33
2022-08-11T07:29:10.781Z,4.05
2022-08-11T07:39:21.357Z,3.33
2022-08-11T07:49:43.784Z,2.47
2022-08-11T08:00:07.663Z,2.50
2022-08-11T08:10:33.043Z,1.77
2022-08-11T08:20:40.945Z,2.22
2022-08-11T08:30:48.705Z,2.17
2022-08-11T08:40:56.495Z,1.53
2022-08-11T09:01:30.088Z,2.00
2022-08-11T09:22:14.793Z,2.15
2022-08-11T09:32:23.929Z,2.00
2022-08-11T09:42:49.590Z,1.85
2022-08-11T09:53:34.660Z,1.25
2022-08-11T10:03:24.725Z,2.00
2022-08-11T10:14:33.552Z,1.40
2022-08-11T10:24:40.632Z,1.60
2022-08-11T10:34:51.188Z,1.83
2022-08-11T10:45:02.169Z,1.80
2022-08-11T10:55:24.459Z,1.10
2022-08-11T11:05:32.003Z,1.27
2022-08-11T11:16:02.944Z,1.17
2022-08-11T11:26:28.021Z,1.40
2022-08-11T11:36:42.024Z,1.38
2022-08-11T11:46:49.659Z,1.02
2022-08-11T11:56:54.403Z,1.08
2022-08-11T12:07:19.300Z,1.65
2022-08-11T12:17:25.968Z,1.85
2022-08-11T12:27:32.549Z,0.88
2022-08-11T12:37:38.299Z,1.42
2022-08-11T12:48:40.097Z,0.90
2022-08-11T12:58:32.017Z,0.90
2022-08-11T13:08:40.206Z,0.90
2022-08-11T13:18:44.800Z,0.80
2022-08-11T13:28:50.397Z,2.90
2022-08-11T13:38:55.280Z,1.00
2022-08-11T13:49:00.865Z,1.00
2022-08-11T13:59:04.694Z,1.92
2022-08-11T14:09:11.432Z,1.05
2022-08-11T14:19:15.654Z,1.10
2022-08-11T14:29:22.200Z,0.95
2022-08-11T14:39:28.935Z,1.27
2022-08-11T14:49:35.826Z,1.20
2022-08-11T14:59:39.120Z,1.55
2022-08-11T15:10:09.731Z,1.52
2022-08-11T15:20:30.207Z,0.95
2022-08-11T15:30:54.102Z,4.10
2022-08-11T15:41:16.809Z,2.35
2022-08-11T15:51:30.817Z,1.50
2022-08-11T16:01:54.597Z,1.67
2022-08-11T16:12:02.604Z,1.05
2022-08-11T16:22:09.934Z,1.30
2022-08-11T16:32:17.583Z,1.92
2022-08-11T16:43:09.471Z,4.37
2022-08-11T16:53:09.793Z,1.73
2022-08-11T17:03:32.798Z,1.55
2022-08-11T17:13:42.596Z,6.47
2022-08-11T17:23:52.936Z,1.30
2022-08-11T17:34:18.617Z,4.07
2022-08-11T17:44:40.739Z,1.38
2022-08-11T17:55:05.940Z,2.83
2022-08-11T18:05:13.879Z,2.75
2022-08-11T18:15:37.573Z,2.92
2022-08-11T18:26:14.046Z,2.17
2022-08-11T18:36:42.086Z,2.40
2022-08-11T18:47:07.874Z,5.07
2022-08-11T18:57:33.477Z,6.90
2022-08-11T19:08:10.359Z,8.23
2022-08-11T19:18:38.521Z,7.40
2022-08-11T19:29:03.371Z,8.93
2022-08-11T19:39:28.455Z,7.68
2022-08-11T19:49:51.735Z,7.25
2022-08-11T20:00:15.915Z,9.73
2022-08-11T20:10:40.626Z,5.72
2022-08-11T20:21:05.977Z,7.82
2022-08-11T20:31:49.046Z,10.10
2022-08-11T20:42:13.697Z,7.22
2022-08-11T20:52:38.223Z,7.43
2022-08-11T21:03:02.739Z,8.13
2022-08-11T21:13:29.148Z,8.07
2022-08-11T21:23:59.176Z,10.48
2022-08-11T21:34:22.234Z,12.03
2022-08-11T21:44:46.572Z,9.95
2022-08-11T21:55:09.279Z,11.50
2022-08-11T22:05:35.241Z,10.38
2022-08-11T22:15:57.099Z,11.40
2022-08-11T22:26:21.225Z,7.75
2022-08-11T22:36:44.843Z,7.57
2022-08-11T22:47:09.723Z,8.65
2022-08-11T22:57:33.272Z,10.52
2022-08-11T23:07:57.837Z,9.50
2022-08-11T23:18:19.469Z,12.25
2022-08-11T23:28:44.447Z,12.10
2022-08-11T23:39:06.086Z,10.35
2022-08-11T23:49:29.734Z,13.65
2022-08-11T23:59:51.534Z,13.23
